sensor_id;sensor_type;location;lat;lon;timestamp;temperature;humidity
6462;DHT22;3264;42.862;25.098;2024-03-07T00:01:56;6.80;99.90
6462;DHT22;3264;42.862;25.098;2024-03-07T00:04:31;6.90;99.90
6462;DHT22;3264;42.862;25.098;2024-03-07T00:06:59;6.90;99.90
6462;DHT22;3264;42.862;25.098;2024-03-07T00:09:33;6.80;99.90
6462;DHT22;3264;42.862;25.098;2024-03-07T00:12:03;6.80;99.90
6462;DHT22;3264;42.862;25.098;2024-03-07T00:14:31;6.90;99.90
6462;DHT22;3264;42.862;25.098;2024-03-07T00:17:02;6.90;99.90
6462;DHT22;3264;42.862;25.098;2024-03-07T00:19:30;6.90;99.90
6462;DHT22;3264;42.862;25.098;2024-03-07T00:21:58;6.90;99.90
6462;DHT22;3264;42.862;25.098;2024-03-07T00:24:29;6.90;99.90
6462;DHT22;3264;42.862;25.098;2024-03-07T00:27:03;6.90;99.90
6462;DHT22;3264;42.862;25.098;2024-03-07T00:29:40;6.90;99.90
6462;DHT22;3264;42.862;25.098;2024-03-07T00:32:26;7.00;99.90
6462;DHT22;3264;42.862;25.098;2024-03-07T00:34:56;7.00;99.90
6462;DHT22;3264;42.862;25.098;2024-03-07T00:37:25;7.00;99.90
6462;DHT22;3264;42.862;25.098;2024-03-07T00:39:52;7.00;99.90
6462;DHT22;3264;42.862;25.098;2024-03-07T00:42:21;7.00;99.90
6462;DHT22;3264;42.862;25.098;2024-03-07T00:44:53;7.00;99.90
6462;DHT22;3264;42.862;25.098;2024-03-07T00:47:22;7.00;99.90
6462;DHT22;3264;42.862;25.098;2024-03-07T00:49:53;7.00;99.90
6462;DHT22;3264;42.862;25.098;2024-03-07T00:52:24;7.10;99.90
6462;DHT22;3264;42.862;25.098;2024-03-07T00:54:51;7.10;99.90
6462;DHT22;3264;42.862;25.098;2024-03-07T00:57:23;7.10;99.90
6462;DHT22;3264;42.862;25.098;2024-03-07T00:59:51;7.10;99.90
6462;DHT22;3264;42.862;25.098;2024-03-07T01:02:22;7.20;99.90
6462;DHT22;3264;42.862;25.098;2024-03-07T01:04:50;7.00;99.90
6462;DHT22;3264;42.862;25.098;2024-03-07T01:07:20;7.00;99.90
6462;DHT22;3264;42.862;25.098;2024-03-07T01:09:49;7.00;99.90
6462;DHT22;3264;42.862;25.098;2024-03-07T01:12:17;7.00;99.90
6462;DHT22;3264;42.862;25.098;2024-03-07T01:14:50;7.10;99.90
6462;DHT22;3264;42.862;25.098;2024-03-07T01:17:20;7.10;99.90
6462;DHT22;3264;42.862;25.098;2024-03-07T01:19:48;7.10;99.90
6462;DHT22;3264;42.862;25.098;2024-03-07T01:22:17;7.10;99.90
6462;DHT22;3264;42.862;25.098;2024-03-07T01:24:46;7.10;99.90
6462;DHT22;3264;42.862;25.098;2024-03-07T01:27:14;7.10;99.90
6462;DHT22;3264;42.862;25.098;2024-03-07T01:29:43;7.10;99.90
6462;DHT22;3264;42.862;25.098;2024-03-07T01:32:36;7.10;99.90
6462;DHT22;3264;42.862;25.098;2024-03-07T01:35:06;7.10;99.90
6462;DHT22;3264;42.862;25.098;2024-03-07T01:37:35;7.10;99.90
6462;DHT22;3264;42.862;25.098;2024-03-07T01:40:03;6.90;99.90
6462;DHT22;3264;42.862;25.098;2024-03-07T01:42:32;6.90;99.90
6462;DHT22;3264;42.862;25.098;2024-03-07T01:45:01;6.90;99.90
6462;DHT22;3264;42.862;25.098;2024-03-07T01:47:29;6.80;99.90
6462;DHT22;3264;42.862;25.098;2024-03-07T01:50:00;6.80;99.90
6462;DHT22;3264;42.862;25.098;2024-03-07T01:52:29;6.80;99.90
6462;DHT22;3264;42.862;25.098;2024-03-07T01:54:57;6.80;99.90
6462;DHT22;3264;42.862;25.098;2024-03-07T01:57:25;6.90;99.90
6462;DHT22;3264;42.862;25.098;2024-03-07T01:59:55;6.90;99.90
6462;DHT22;3264;42.862;25.098;2024-03-07T02:02:24;6.90;99.90
6462;DHT22;3264;42.862;25.098;2024-03-07T02:04:52;7.00;99.90
6462;DHT22;3264;42.862;25.098;2024-03-07T02:07:23;6.90;99.90
6462;DHT22;3264;42.862;25.098;2024-03-07T02:10:00;6.90;99.90
6462;DHT22;3264;42.862;25.098;2024-03-07T02:12:28;6.90;99.90
6462;DHT22;3264;42.862;25.098;2024-03-07T02:14:57;6.90;99.90
6462;DHT22;3264;42.862;25.098;2024-03-07T02:17:26;6.90;99.90
6462;DHT22;3264;42.862;25.098;2024-03-07T02:19:55;6.90;99.90
6462;DHT22;3264;42.862;25.098;2024-03-07T02:22:25;7.00;99.90
6462;DHT22;3264;42.862;25.098;2024-03-07T02:24:54;6.90;99.90
6462;DHT22;3264;42.862;25.098;2024-03-07T02:27:22;6.80;99.90
6462;DHT22;3264;42.862;25.098;2024-03-07T02:29:51;6.70;99.90
6462;DHT22;3264;42.862;25.098;2024-03-07T02:32:19;6.70;99.90
6462;DHT22;3264;42.862;25.098;2024-03-07T02:34:50;6.80;99.90
6462;DHT22;3264;42.862;25.098;2024-03-07T02:37:19;6.80;99.90
6462;DHT22;3264;42.862;25.098;2024-03-07T02:39:49;6.80;99.90
6462;DHT22;3264;42.862;25.098;2024-03-07T02:42:18;6.70;99.90
6462;DHT22;3264;42.862;25.098;2024-03-07T02:44:46;6.70;99.90
6462;DHT22;3264;42.862;25.098;2024-03-07T02:47:14;6.70;99.90
6462;DHT22;3264;42.862;25.098;2024-03-07T02:49:41;6.70;99.90
6462;DHT22;3264;42.862;25.098;2024-03-07T02:52:13;6.70;99.90
6462;DHT22;3264;42.862;25.098;2024-03-07T02:54:41;6.70;99.90
6462;DHT22;3264;42.862;25.098;2024-03-07T02:57:11;6.70;99.90
6462;DHT22;3264;42.862;25.098;2024-03-07T02:59:39;6.70;99.90
6462;DHT22;3264;42.862;25.098;2024-03-07T03:02:07;6.60;99.90
6462;DHT22;3264;42.862;25.098;2024-03-07T03:04:36;6.50;99.90
6462;DHT22;3264;42.862;25.098;2024-03-07T03:07:05;6.60;99.90
6462;DHT22;3264;42.862;25.098;2024-03-07T03:09:33;6.50;99.90
6462;DHT22;3264;42.862;25.098;2024-03-07T03:12:07;6.50;99.90
6462;DHT22;3264;42.862;25.098;2024-03-07T03:14:36;6.60;99.90
6462;DHT22;3264;42.862;25.098;2024-03-07T03:17:05;6.60;99.90
6462;DHT22;3264;42.862;25.098;2024-03-07T03:19:35;6.60;99.90
6462;DHT22;3264;42.862;25.098;2024-03-07T03:22:04;6.70;99.90
6462;DHT22;3264;42.862;25.098;2024-03-07T03:24:32;6.70;99.90
6462;DHT22;3264;42.862;25.098;2024-03-07T03:27:00;6.70;99.90
6462;DHT22;3264;42.862;25.098;2024-03-07T03:29:28;6.60;99.90
6462;DHT22;3264;42.862;25.098;2024-03-07T03:31:59;6.50;99.90
6462;DHT22;3264;42.862;25.098;2024-03-07T03:34:28;6.50;99.90
6462;DHT22;3264;42.862;25.098;2024-03-07T03:36:56;6.60;99.90
6462;DHT22;3264;42.862;25.098;2024-03-07T03:39:24;6.60;99.90
6462;DHT22;3264;42.862;25.098;2024-03-07T03:41:53;6.60;99.90
6462;DHT22;3264;42.862;25.098;2024-03-07T03:44:21;6.60;99.90
6462;DHT22;3264;42.862;25.098;2024-03-07T03:46:49;6.70;99.90
6462;DHT22;3264;42.862;25.098;2024-03-07T03:49:20;6.70;99.90
6462;DHT22;3264;42.862;25.098;2024-03-07T03:51:48;6.70;99.90
6462;DHT22;3264;42.862;25.098;2024-03-07T03:54:17;6.80;99.90
6462;DHT22;3264;42.862;25.098;2024-03-07T03:56:45;6.80;99.90
6462;DHT22;3264;42.862;25.098;2024-03-07T03:59:13;6.80;99.90
6462;DHT22;3264;42.862;25.098;2024-03-07T04:01:41;6.90;99.90
6462;DHT22;3264;42.862;25.098;2024-03-07T04:04:12;6.90;99.90
6462;DHT22;3264;42.862;25.098;2024-03-07T04:06:41;6.90;99.90
6462;DHT22;3264;42.862;25.098;2024-03-07T04:09:10;6.90;99.90
6462;DHT22;3264;42.862;25.098;2024-03-07T04:11:39;6.90;99.90
6462;DHT22;3264;42.862;25.098;2024-03-07T04:14:32;6.90;99.90
6462;DHT22;3264;42.862;25.098;2024-03-07T04:17:00;6.90;99.90
6462;DHT22;3264;42.862;25.098;2024-03-07T04:19:29;6.90;99.90
6462;DHT22;3264;42.862;25.098;2024-03-07T04:22:02;6.80;99.90
6462;DHT22;3264;42.862;25.098;2024-03-07T04:24:31;6.70;99.90
6462;DHT22;3264;42.862;25.098;2024-03-07T04:27:00;6.70;99.90
6462;DHT22;3264;42.862;25.098;2024-03-07T04:29:30;6.80;99.90
6462;DHT22;3264;42.862;25.098;2024-03-07T04:31:59;6.80;99.90
6462;DHT22;3264;42.862;25.098;2024-03-07T04:34:31;6.90;99.90
6462;DHT22;3264;42.862;25.098;2024-03-07T04:36:59;6.90;99.90
6462;DHT22;3264;42.862;25.098;2024-03-07T04:39:29;6.90;99.90
6462;DHT22;3264;42.862;25.098;2024-03-07T04:41:58;6.90;99.90
6462;DHT22;3264;42.862;25.098;2024-03-07T04:44:27;6.90;99.90
6462;DHT22;3264;42.862;25.098;2024-03-07T04:47:00;6.90;99.90
6462;DHT22;3264;42.862;25.098;2024-03-07T04:49:34;6.90;99.90
6462;DHT22;3264;42.862;25.098;2024-03-07T04:52:03;6.70;99.90
6462;DHT22;3264;42.862;25.098;2024-03-07T04:54:36;6.70;99.90
6462;DHT22;3264;42.862;25.098;2024-03-07T04:57:06;6.70;99.90
6462;DHT22;3264;42.862;25.098;2024-03-07T04:59:39;6.70;99.90
6462;DHT22;3264;42.862;25.098;2024-03-07T05:02:15;6.80;99.90
6462;DHT22;3264;42.862;25.098;2024-03-07T05:04:47;6.80;99.90
6462;DHT22;3264;42.862;25.098;2024-03-07T05:07:24;6.90;99.90
6462;DHT22;3264;42.862;25.098;2024-03-07T05:09:54;6.80;99.90
6462;DHT22;3264;42.862;25.098;2024-03-07T05:12:21;6.90;99.90
6462;DHT22;3264;42.862;25.098;2024-03-07T05:14:50;6.90;99.90
6462;DHT22;3264;42.862;25.098;2024-03-07T05:17:19;6.90;99.90
6462;DHT22;3264;42.862;25.098;2024-03-07T05:19:51;6.90;99.90
6462;DHT22;3264;42.862;25.098;2024-03-07T05:22:21;7.00;99.90
6462;DHT22;3264;42.862;25.098;2024-03-07T05:24:54;6.90;99.90
6462;DHT22;3264;42.862;25.098;2024-03-07T05:27:23;6.90;99.90
6462;DHT22;3264;42.862;25.098;2024-03-07T05:29:59;6.90;99.90
6462;DHT22;3264;42.862;25.098;2024-03-07T05:32:32;7.00;99.90
6462;DHT22;3264;42.862;25.098;2024-03-07T05:35:03;7.10;99.90
6462;DHT22;3264;42.862;25.098;2024-03-07T05:37:34;7.10;99.90
6462;DHT22;3264;42.862;25.098;2024-03-07T05:40:10;7.10;99.90
6462;DHT22;3264;42.862;25.098;2024-03-07T05:42:46;7.20;99.90
6462;DHT22;3264;42.862;25.098;2024-03-07T05:45:19;7.20;99.90
6462;DHT22;3264;42.862;25.098;2024-03-07T05:47:46;7.20;99.90
6462;DHT22;3264;42.862;25.098;2024-03-07T05:50:15;7.30;99.90
6462;DHT22;3264;42.862;25.098;2024-03-07T05:52:42;7.30;99.90
6462;DHT22;3264;42.862;25.098;2024-03-07T05:55:21;7.40;99.90
6462;DHT22;3264;42.862;25.098;2024-03-07T05:58:01;7.50;99.90
6462;DHT22;3264;42.862;25.098;2024-03-07T06:00:29;7.50;99.90
6462;DHT22;3264;42.862;25.098;2024-03-07T06:03:01;7.60;99.90
6462;DHT22;3264;42.862;25.098;2024-03-07T06:05:31;7.60;99.90
6462;DHT22;3264;42.862;25.098;2024-03-07T06:08:01;7.70;99.90
6462;DHT22;3264;42.862;25.098;2024-03-07T06:10:37;7.70;99.90
6462;DHT22;3264;42.862;25.098;2024-03-07T06:13:06;7.70;99.90
6462;DHT22;3264;42.862;25.098;2024-03-07T06:15:38;7.70;99.90
6462;DHT22;3264;42.862;25.098;2024-03-07T06:18:13;7.70;99.90
6462;DHT22;3264;42.862;25.098;2024-03-07T06:20:41;7.70;99.90
6462;DHT22;3264;42.862;25.098;2024-03-07T06:23:09;7.70;99.90
6462;DHT22;3264;42.862;25.098;2024-03-07T06:25:46;7.70;99.90
6462;DHT22;3264;42.862;25.098;2024-03-07T06:28:18;7.70;99.90
6462;DHT22;3264;42.862;25.098;2024-03-07T06:30:47;7.70;99.90
6462;DHT22;3264;42.862;25.098;2024-03-07T06:33:16;7.70;99.90
6462;DHT22;3264;42.862;25.098;2024-03-07T06:35:44;7.70;99.90
6462;DHT22;3264;42.862;25.098;2024-03-07T06:38:12;7.70;99.90
6462;DHT22;3264;42.862;25.098;2024-03-07T06:40:44;7.70;99.90
6462;DHT22;3264;42.862;25.098;2024-03-07T06:43:12;7.70;99.90
6462;DHT22;3264;42.862;25.098;2024-03-07T06:45:41;7.60;99.90
6462;DHT22;3264;42.862;25.098;2024-03-07T06:48:11;7.70;99.90
6462;DHT22;3264;42.862;25.098;2024-03-07T06:50:43;7.70;99.90
6462;DHT22;3264;42.862;25.098;2024-03-07T06:53:18;7.80;99.90
6462;DHT22;3264;42.862;25.098;2024-03-07T06:55:49;7.80;99.90
6462;DHT22;3264;42.862;25.098;2024-03-07T06:58:20;7.90;99.90
6462;DHT22;3264;42.862;25.098;2024-03-07T07:00:50;7.90;99.90
6462;DHT22;3264;42.862;25.098;2024-03-07T07:03:25;8.00;99.90
6462;DHT22;3264;42.862;25.098;2024-03-07T07:05:57;7.90;99.90
6462;DHT22;3264;42.862;25.098;2024-03-07T07:08:26;7.90;99.90
6462;DHT22;3264;42.862;25.098;2024-03-07T07:11:00;7.90;99.90
6462;DHT22;3264;42.862;25.098;2024-03-07T07:13:30;7.90;99.90
6462;DHT22;3264;42.862;25.098;2024-03-07T07:15:58;8.00;99.90
6462;DHT22;3264;42.862;25.098;2024-03-07T07:18:27;8.00;99.90
6462;DHT22;3264;42.862;25.098;2024-03-07T07:20:55;8.10;99.90
6462;DHT22;3264;42.862;25.098;2024-03-07T07:23:25;8.10;99.90
6462;DHT22;3264;42.862;25.098;2024-03-07T07:25:52;8.10;99.90
6462;DHT22;3264;42.862;25.098;2024-03-07T07:28:23;8.20;99.90
6462;DHT22;3264;42.862;25.098;2024-03-07T07:30:50;8.20;99.90
6462;DHT22;3264;42.862;25.098;2024-03-07T07:33:18;8.30;99.90
6462;DHT22;3264;42.862;25.098;2024-03-07T07:35:46;8.30;99.90
6462;DHT22;3264;42.862;25.098;2024-03-07T07:38:14;8.30;99.90
6462;DHT22;3264;42.862;25.098;2024-03-07T07:40:42;8.40;99.90
6462;DHT22;3264;42.862;25.098;2024-03-07T07:43:10;8.40;99.90
6462;DHT22;3264;42.862;25.098;2024-03-07T07:45:42;8.40;99.90
6462;DHT22;3264;42.862;25.098;2024-03-07T07:48:10;8.40;99.90
6462;DHT22;3264;42.862;25.098;2024-03-07T07:50:38;8.50;99.90
6462;DHT22;3264;42.862;25.098;2024-03-07T07:53:12;8.50;99.90
6462;DHT22;3264;42.862;25.098;2024-03-07T07:55:40;8.60;99.90
6462;DHT22;3264;42.862;25.098;2024-03-07T07:58:08;8.60;99.90
6462;DHT22;3264;42.862;25.098;2024-03-07T08:00:36;8.60;99.90
6462;DHT22;3264;42.862;25.098;2024-03-07T08:03:06;8.80;99.90
6462;DHT22;3264;42.862;25.098;2024-03-07T08:05:36;8.90;99.90
6462;DHT22;3264;42.862;25.098;2024-03-07T08:08:05;9.00;99.90
6462;DHT22;3264;42.862;25.098;2024-03-07T08:10:35;9.10;99.90
6462;DHT22;3264;42.862;25.098;2024-03-07T08:13:04;9.20;99.90
6462;DHT22;3264;42.862;25.098;2024-03-07T08:15:35;9.20;99.90
6462;DHT22;3264;42.862;25.098;2024-03-07T08:18:05;9.30;99.90
6462;DHT22;3264;42.862;25.098;2024-03-07T08:20:34;9.40;99.90
6462;DHT22;3264;42.862;25.098;2024-03-07T08:23:02;9.50;99.90
6462;DHT22;3264;42.862;25.098;2024-03-07T08:25:30;9.60;99.90
6462;DHT22;3264;42.862;25.098;2024-03-07T08:27:58;9.70;99.90
6462;DHT22;3264;42.862;25.098;2024-03-07T08:30:27;9.60;99.90
6462;DHT22;3264;42.862;25.098;2024-03-07T08:32:56;9.60;99.90
6462;DHT22;3264;42.862;25.098;2024-03-07T08:35:26;9.70;99.90
6462;DHT22;3264;42.862;25.098;2024-03-07T08:37:55;9.70;99.90
6462;DHT22;3264;42.862;25.098;2024-03-07T08:40:25;9.70;99.90
6462;DHT22;3264;42.862;25.098;2024-03-07T08:42:57;9.80;99.90
6462;DHT22;3264;42.862;25.098;2024-03-07T08:45:25;10.00;99.90
6462;DHT22;3264;42.862;25.098;2024-03-07T08:47:53;10.20;99.90
6462;DHT22;3264;42.862;25.098;2024-03-07T08:50:25;10.20;99.90
6462;DHT22;3264;42.862;25.098;2024-03-07T08:52:53;10.30;99.90
6462;DHT22;3264;42.862;25.098;2024-03-07T08:55:23;10.40;99.90
6462;DHT22;3264;42.862;25.098;2024-03-07T08:57:51;10.60;99.90
6462;DHT22;3264;42.862;25.098;2024-03-07T09:00:20;10.70;99.90
6462;DHT22;3264;42.862;25.098;2024-03-07T09:02:50;10.80;99.90
6462;DHT22;3264;42.862;25.098;2024-03-07T09:05:20;10.90;99.90
6462;DHT22;3264;42.862;25.098;2024-03-07T09:07:50;10.90;99.90
6462;DHT22;3264;42.862;25.098;2024-03-07T09:10:18;11.00;99.90
6462;DHT22;3264;42.862;25.098;2024-03-07T09:12:49;11.10;99.90
6462;DHT22;3264;42.862;25.098;2024-03-07T09:15:18;11.30;99.90
6462;DHT22;3264;42.862;25.098;2024-03-07T09:17:48;11.60;99.90
6462;DHT22;3264;42.862;25.098;2024-03-07T09:20:16;12.00;99.90
6462;DHT22;3264;42.862;25.098;2024-03-07T09:22:46;12.40;99.90
6462;DHT22;3264;42.862;25.098;2024-03-07T09:25:17;12.70;98.50
6462;DHT22;3264;42.862;25.098;2024-03-07T09:27:44;13.00;97.40
6462;DHT22;3264;42.862;25.098;2024-03-07T09:30:12;13.30;97.10
6462;DHT22;3264;42.862;25.098;2024-03-07T09:32:44;13.40;96.30
6462;DHT22;3264;42.862;25.098;2024-03-07T09:35:12;13.90;96.30
6462;DHT22;3264;42.862;25.098;2024-03-07T09:37:40;14.30;94.70
6462;DHT22;3264;42.862;25.098;2024-03-07T09:40:09;14.80;94.60
6462;DHT22;3264;42.862;25.098;2024-03-07T09:42:45;15.30;93.00
6462;DHT22;3264;42.862;25.098;2024-03-07T09:45:16;16.10;92.00
6462;DHT22;3264;42.862;25.098;2024-03-07T09:47:46;16.50;86.90
6462;DHT22;3264;42.862;25.098;2024-03-07T09:50:16;16.40;85.20
6462;DHT22;3264;42.862;25.098;2024-03-07T09:52:47;16.30;85.20
6462;DHT22;3264;42.862;25.098;2024-03-07T09:55:17;16.00;81.00
6462;DHT22;3264;42.862;25.098;2024-03-07T09:57:49;15.50;82.30
6462;DHT22;3264;42.862;25.098;2024-03-07T10:00:19;15.20;82.60
6462;DHT22;3264;42.862;25.098;2024-03-07T10:02:54;15.00;84.10
6462;DHT22;3264;42.862;25.098;2024-03-07T10:05:27;14.90;85.00
6462;DHT22;3264;42.862;25.098;2024-03-07T10:07:55;14.80;85.30
6462;DHT22;3264;42.862;25.098;2024-03-07T10:10:24;14.70;85.00
6462;DHT22;3264;42.862;25.098;2024-03-07T10:12:53;14.40;85.10
6462;DHT22;3264;42.862;25.098;2024-03-07T10:15:27;14.40;87.40
6462;DHT22;3264;42.862;25.098;2024-03-07T10:17:56;14.30;86.20
6462;DHT22;3264;42.862;25.098;2024-03-07T10:20:24;14.40;88.40
6462;DHT22;3264;42.862;25.098;2024-03-07T10:22:53;14.60;88.60
6462;DHT22;3264;42.862;25.098;2024-03-07T10:25:22;14.70;85.20
6462;DHT22;3264;42.862;25.098;2024-03-07T10:27:55;14.90;85.80
6462;DHT22;3264;42.862;25.098;2024-03-07T10:30:24;14.90;82.50
6462;DHT22;3264;42.862;25.098;2024-03-07T10:32:53;14.90;81.60
6462;DHT22;3264;42.862;25.098;2024-03-07T10:35:23;14.80;81.50
6462;DHT22;3264;42.862;25.098;2024-03-07T10:37:53;14.30;81.90
6462;DHT22;3264;42.862;25.098;2024-03-07T10:40:22;13.70;84.00
6462;DHT22;3264;42.862;25.098;2024-03-07T10:42:58;13.40;86.80
6462;DHT22;3264;42.862;25.098;2024-03-07T10:45:29;13.50;88.00
6462;DHT22;3264;42.862;25.098;2024-03-07T10:47:58;13.40;89.20
6462;DHT22;3264;42.862;25.098;2024-03-07T10:50:39;13.40;89.50
6462;DHT22;3264;42.862;25.098;2024-03-07T10:53:20;13.60;89.20
6462;DHT22;3264;42.862;25.098;2024-03-07T10:56:11;13.60;89.90
6462;DHT22;3264;42.862;25.098;2024-03-07T10:58:56;13.70;87.40
6462;DHT22;3264;42.862;25.098;2024-03-07T11:01:26;13.70;85.30
6462;DHT22;3264;42.862;25.098;2024-03-07T11:03:56;14.00;85.80
6462;DHT22;3264;42.862;25.098;2024-03-07T11:06:25;14.10;87.40
6462;DHT22;3264;42.862;25.098;2024-03-07T11:08:54;14.50;88.20
6462;DHT22;3264;42.862;25.098;2024-03-07T11:11:24;14.80;88.50
6462;DHT22;3264;42.862;25.098;2024-03-07T11:13:53;15.10;87.10
6462;DHT22;3264;42.862;25.098;2024-03-07T11:16:26;15.40;84.70
6462;DHT22;3264;42.862;25.098;2024-03-07T11:19:19;15.80;85.70
6462;DHT22;3264;42.862;25.098;2024-03-07T11:21:48;16.20;84.60
6462;DHT22;3264;42.862;25.098;2024-03-07T11:24:26;16.50;83.20
6462;DHT22;3264;42.862;25.098;2024-03-07T11:26:55;16.60;83.20
6462;DHT22;3264;42.862;25.098;2024-03-07T11:29:42;16.70;82.60
6462;DHT22;3264;42.862;25.098;2024-03-07T11:32:11;16.80;81.00
6462;DHT22;3264;42.862;25.098;2024-03-07T11:34:41;16.60;80.10
6462;DHT22;3264;42.862;25.098;2024-03-07T11:37:09;16.60;81.60
6462;DHT22;3264;42.862;25.098;2024-03-07T11:39:44;16.50;80.10
6462;DHT22;3264;42.862;25.098;2024-03-07T11:42:25;16.40;78.60
6462;DHT22;3264;42.862;25.098;2024-03-07T11:44:57;16.30;79.00
6462;DHT22;3264;42.862;25.098;2024-03-07T11:47:34;16.30;79.90
6462;DHT22;3264;42.862;25.098;2024-03-07T11:50:05;16.40;80.10
6462;DHT22;3264;42.862;25.098;2024-03-07T11:52:38;16.40;78.10
6462;DHT22;3264;42.862;25.098;2024-03-07T11:55:08;16.30;77.90
6462;DHT22;3264;42.862;25.098;2024-03-07T11:57:36;16.20;77.90
6462;DHT22;3264;42.862;25.098;2024-03-07T12:00:10;16.00;77.60
6462;DHT22;3264;42.862;25.098;2024-03-07T12:02:40;15.70;78.40
6462;DHT22;3264;42.862;25.098;2024-03-07T12:05:09;15.40;78.40
6462;DHT22;3264;42.862;25.098;2024-03-07T12:07:42;15.20;79.30
6462;DHT22;3264;42.862;25.098;2024-03-07T12:10:21;15.00;80.10
6462;DHT22;3264;42.862;25.098;2024-03-07T12:12:50;14.90;80.80
6462;DHT22;3264;42.862;25.098;2024-03-07T12:15:20;14.70;81.50
6462;DHT22;3264;42.862;25.098;2024-03-07T12:17:49;14.50;82.30
6462;DHT22;3264;42.862;25.098;2024-03-07T12:20:17;14.30;82.50
6462;DHT22;3264;42.862;25.098;2024-03-07T12:22:57;14.30;83.50
6462;DHT22;3264;42.862;25.098;2024-03-07T12:25:27;14.20;83.80
6462;DHT22;3264;42.862;25.098;2024-03-07T12:28:05;14.10;84.70
6462;DHT22;3264;42.862;25.098;2024-03-07T12:30:49;14.00;83.20
6462;DHT22;3264;42.862;25.098;2024-03-07T12:33:20;13.90;84.30
6462;DHT22;3264;42.862;25.098;2024-03-07T12:35:50;13.90;85.70
6462;DHT22;3264;42.862;25.098;2024-03-07T12:38:19;13.80;86.30
6462;DHT22;3264;42.862;25.098;2024-03-07T12:41:03;13.90;85.80
6462;DHT22;3264;42.862;25.098;2024-03-07T12:43:40;13.80;85.40
6462;DHT22;3264;42.862;25.098;2024-03-07T12:46:13;13.60;79.10
6462;DHT22;3264;42.862;25.098;2024-03-07T12:48:41;13.30;75.80
6462;DHT22;3264;42.862;25.098;2024-03-07T12:51:11;13.10;76.60
6462;DHT22;3264;42.862;25.098;2024-03-07T12:53:43;13.00;76.80
6462;DHT22;3264;42.862;25.098;2024-03-07T12:56:13;12.90;77.00
6462;DHT22;3264;42.862;25.098;2024-03-07T12:58:44;12.80;76.50
6462;DHT22;3264;42.862;25.098;2024-03-07T13:01:15;12.80;77.60
6462;DHT22;3264;42.862;25.098;2024-03-07T13:03:45;12.70;77.30
6462;DHT22;3264;42.862;25.098;2024-03-07T13:06:13;12.50;77.30
6462;DHT22;3264;42.862;25.098;2024-03-07T13:08:45;12.30;75.80
6462;DHT22;3264;42.862;25.098;2024-03-07T13:11:12;12.10;76.90
6462;DHT22;3264;42.862;25.098;2024-03-07T13:13:40;11.90;77.50
6462;DHT22;3264;42.862;25.098;2024-03-07T13:16:08;11.80;79.40
6462;DHT22;3264;42.862;25.098;2024-03-07T13:18:38;11.90;79.40
6462;DHT22;3264;42.862;25.098;2024-03-07T13:21:11;11.80;79.70
6462;DHT22;3264;42.862;25.098;2024-03-07T13:23:44;11.60;79.50
6462;DHT22;3264;42.862;25.098;2024-03-07T13:26:12;11.40;79.60
6462;DHT22;3264;42.862;25.098;2024-03-07T13:28:42;11.20;80.00
6462;DHT22;3264;42.862;25.098;2024-03-07T13:31:11;11.00;79.90
6462;DHT22;3264;42.862;25.098;2024-03-07T13:33:40;10.80;80.20
6462;DHT22;3264;42.862;25.098;2024-03-07T13:36:09;10.60;79.80
6462;DHT22;3264;42.862;25.098;2024-03-07T13:38:37;10.50;80.60
6462;DHT22;3264;42.862;25.098;2024-03-07T13:41:05;10.40;82.70
6462;DHT22;3264;42.862;25.098;2024-03-07T13:43:34;10.30;85.20
6462;DHT22;3264;42.862;25.098;2024-03-07T13:46:02;10.20;83.30
6462;DHT22;3264;42.862;25.098;2024-03-07T13:48:31;10.10;82.60
6462;DHT22;3264;42.862;25.098;2024-03-07T13:51:04;10.10;84.20
6462;DHT22;3264;42.862;25.098;2024-03-07T13:53:34;10.10;84.20
6462;DHT22;3264;42.862;25.098;2024-03-07T13:56:42;10.20;86.40
6462;DHT22;3264;42.862;25.098;2024-03-07T13:59:44;10.20;88.30
6462;DHT22;3264;42.862;25.098;2024-03-07T14:02:38;10.30;89.30
6462;DHT22;3264;42.862;25.098;2024-03-07T14:05:35;10.20;88.30
6462;DHT22;3264;42.862;25.098;2024-03-07T14:11:32;10.20;90.50
6462;DHT22;3264;42.862;25.098;2024-03-07T14:14:23;10.10;90.70
6462;DHT22;3264;42.862;25.098;2024-03-07T14:17:27;10.00;91.50
6462;DHT22;3264;42.862;25.098;2024-03-07T14:23:41;10.00;93.20
6462;DHT22;3264;42.862;25.098;2024-03-07T14:29:25;10.00;93.90
6462;DHT22;3264;42.862;25.098;2024-03-07T14:31:56;10.00;93.90
6462;DHT22;3264;42.862;25.098;2024-03-07T14:34:33;10.00;94.60
6462;DHT22;3264;42.862;25.098;2024-03-07T14:37:23;9.90;95.90
6462;DHT22;3264;42.862;25.098;2024-03-07T14:39:53;9.90;96.50
6462;DHT22;3264;42.862;25.098;2024-03-07T14:42:25;9.80;96.90
6462;DHT22;3264;42.862;25.098;2024-03-07T14:44:54;9.80;97.20
6462;DHT22;3264;42.862;25.098;2024-03-07T14:47:23;9.70;97.60
6462;DHT22;3264;42.862;25.098;2024-03-07T14:49:50;9.70;97.90
6462;DHT22;3264;42.862;25.098;2024-03-07T14:52:18;9.80;98.30
6462;DHT22;3264;42.862;25.098;2024-03-07T14:54:47;9.70;98.60
6462;DHT22;3264;42.862;25.098;2024-03-07T14:57:18;9.60;98.90
6462;DHT22;3264;42.862;25.098;2024-03-07T14:59:48;9.60;99.40
6462;DHT22;3264;42.862;25.098;2024-03-07T15:02:18;9.60;99.60
6462;DHT22;3264;42.862;25.098;2024-03-07T15:04:46;9.50;99.80
6462;DHT22;3264;42.862;25.098;2024-03-07T15:07:14;9.40;99.90
6462;DHT22;3264;42.862;25.098;2024-03-07T15:09:43;9.30;99.90
6462;DHT22;3264;42.862;25.098;2024-03-07T15:12:11;9.20;99.90
6462;DHT22;3264;42.862;25.098;2024-03-07T15:14:40;9.20;99.90
6462;DHT22;3264;42.862;25.098;2024-03-07T15:17:11;9.30;99.90
6462;DHT22;3264;42.862;25.098;2024-03-07T15:19:40;9.30;99.90
6462;DHT22;3264;42.862;25.098;2024-03-07T15:22:10;9.30;99.90
6462;DHT22;3264;42.862;25.098;2024-03-07T15:24:39;9.30;99.90
6462;DHT22;3264;42.862;25.098;2024-03-07T15:27:08;9.30;99.90
6462;DHT22;3264;42.862;25.098;2024-03-07T15:29:36;9.30;99.90
6462;DHT22;3264;42.862;25.098;2024-03-07T15:32:07;9.20;99.90
6462;DHT22;3264;42.862;25.098;2024-03-07T15:34:36;9.10;99.90
6462;DHT22;3264;42.862;25.098;2024-03-07T15:37:04;9.00;99.90
6462;DHT22;3264;42.862;25.098;2024-03-07T15:39:33;8.90;99.90
6462;DHT22;3264;42.862;25.098;2024-03-07T15:42:09;8.80;99.90
6462;DHT22;3264;42.862;25.098;2024-03-07T15:44:39;8.80;99.90
6462;DHT22;3264;42.862;25.098;2024-03-07T15:47:12;8.80;99.90
6462;DHT22;3264;42.862;25.098;2024-03-07T15:49:41;8.70;99.90
6462;DHT22;3264;42.862;25.098;2024-03-07T15:52:08;8.70;99.90
6462;DHT22;3264;42.862;25.098;2024-03-07T15:54:39;8.50;99.90
6462;DHT22;3264;42.862;25.098;2024-03-07T15:57:07;8.50;99.90
6462;DHT22;3264;42.862;25.098;2024-03-07T15:59:36;8.50;99.90
6462;DHT22;3264;42.862;25.098;2024-03-07T16:02:05;8.50;99.90
6462;DHT22;3264;42.862;25.098;2024-03-07T16:04:33;8.50;99.90
6462;DHT22;3264;42.862;25.098;2024-03-07T16:07:03;8.50;99.90
6462;DHT22;3264;42.862;25.098;2024-03-07T16:09:31;8.50;99.90
6462;DHT22;3264;42.862;25.098;2024-03-07T16:12:00;8.50;99.90
6462;DHT22;3264;42.862;25.098;2024-03-07T16:14:29;8.60;99.90
6462;DHT22;3264;42.862;25.098;2024-03-07T16:16:57;8.60;99.90
6462;DHT22;3264;42.862;25.098;2024-03-07T16:19:26;8.60;99.90
6462;DHT22;3264;42.862;25.098;2024-03-07T16:21:54;8.60;99.90
6462;DHT22;3264;42.862;25.098;2024-03-07T16:24:25;8.70;99.90
6462;DHT22;3264;42.862;25.098;2024-03-07T16:26:55;8.60;99.90
6462;DHT22;3264;42.862;25.098;2024-03-07T16:29:24;8.60;99.90
6462;DHT22;3264;42.862;25.098;2024-03-07T16:31:53;8.60;99.90